sensor_id;sensor_type;location;lat;lon;timestamp;temperature;humidity
13174;DHT22;6652;48.802;9.190;2024-02-04T00:01:04;9.00;99.90
13174;DHT22;6652;48.802;9.190;2024-02-04T00:03:31;9.00;99.90
13174;DHT22;6652;48.802;9.190;2024-02-04T00:06:00;9.00;99.90
13174;DHT22;6652;48.802;9.190;2024-02-04T00:08:28;8.90;99.90
13174;DHT22;6652;48.802;9.190;2024-02-04T00:10:57;8.90;99.90
13174;DHT22;6652;48.802;9.190;2024-02-04T00:13:25;8.90;99.90
13174;DHT22;6652;48.802;9.190;2024-02-04T00:15:54;8.90;99.90
13174;DHT22;6652;48.802;9.190;2024-02-04T00:18:24;9.00;99.90
13174;DHT22;6652;48.802;9.190;2024-02-04T00:20:54;9.10;99.90
13174;DHT22;6652;48.802;9.190;2024-02-04T00:23:22;8.90;99.90
13174;DHT22;6652;48.802;9.190;2024-02-04T00:25:52;8.90;99.90
13174;DHT22;6652;48.802;9.190;2024-02-04T00:28:20;8.80;99.90
13174;DHT22;6652;48.802;9.190;2024-02-04T00:30:48;8.80;99.90
13174;DHT22;6652;48.802;9.190;2024-02-04T00:33:37;8.70;99.90
13174;DHT22;6652;48.802;9.190;2024-02-04T00:36:14;9.80;99.90
13174;DHT22;6652;48.802;9.190;2024-02-04T00:38:43;8.60;99.90
13174;DHT22;6652;48.802;9.190;2024-02-04T00:41:12;9.70;99.90
13174;DHT22;6652;48.802;9.190;2024-02-04T00:43:41;8.50;99.90
13174;DHT22;6652;48.802;9.190;2024-02-04T00:46:08;8.40;99.90
13174;DHT22;6652;48.802;9.190;2024-02-04T00:48:37;8.40;99.90
13174;DHT22;6652;48.802;9.190;2024-02-04T00:51:06;8.40;99.90
13174;DHT22;6652;48.802;9.190;2024-02-04T00:53:34;8.50;99.90
13174;DHT22;6652;48.802;9.190;2024-02-04T00:56:04;8.40;99.90
13174;DHT22;6652;48.802;9.190;2024-02-04T00:58:31;8.40;99.90
13174;DHT22;6652;48.802;9.190;2024-02-04T01:00:58;8.60;99.90
13174;DHT22;6652;48.802;9.190;2024-02-04T01:03:27;8.50;99.90
13174;DHT22;6652;48.802;9.190;2024-02-04T01:05:56;8.80;99.90
13174;DHT22;6652;48.802;9.190;2024-02-04T01:08:23;8.40;99.90
13174;DHT22;6652;48.802;9.190;2024-02-04T01:10:52;8.60;99.90
13174;DHT22;6652;48.802;9.190;2024-02-04T01:13:20;8.60;99.90
13174;DHT22;6652;48.802;9.190;2024-02-04T01:15:47;8.70;99.90
13174;DHT22;6652;48.802;9.190;2024-02-04T01:18:18;8.70;99.90
13174;DHT22;6652;48.802;9.190;2024-02-04T01:20:47;9.30;99.90
13174;DHT22;6652;48.802;9.190;2024-02-04T01:23:17;8.70;99.90
13174;DHT22;6652;48.802;9.190;2024-02-04T01:25:43;8.70;99.90
13174;DHT22;6652;48.802;9.190;2024-02-04T01:28:10;8.60;99.90
13174;DHT22;6652;48.802;9.190;2024-02-04T01:30:39;8.60;99.90
13174;DHT22;6652;48.802;9.190;2024-02-04T01:33:06;8.60;99.90
13174;DHT22;6652;48.802;9.190;2024-02-04T01:35:33;8.50;99.90
13174;DHT22;6652;48.802;9.190;2024-02-04T01:38:00;8.80;99.90
13174;DHT22;6652;48.802;9.190;2024-02-04T01:40:28;8.40;99.90
13174;DHT22;6652;48.802;9.190;2024-02-04T01:42:57;8.30;99.90
13174;DHT22;6652;48.802;9.190;2024-02-04T01:45:26;8.30;99.90
13174;DHT22;6652;48.802;9.190;2024-02-04T01:47:53;8.30;99.90
13174;DHT22;6652;48.802;9.190;2024-02-04T01:50:22;8.30;99.90
13174;DHT22;6652;48.802;9.190;2024-02-04T01:52:53;8.30;99.90
13174;DHT22;6652;48.802;9.190;2024-02-04T01:55:21;8.30;99.90
13174;DHT22;6652;48.802;9.190;2024-02-04T01:57:49;8.30;99.90
13174;DHT22;6652;48.802;9.190;2024-02-04T02:00:18;8.40;99.90
13174;DHT22;6652;48.802;9.190;2024-02-04T02:02:46;8.30;99.90
13174;DHT22;6652;48.802;9.190;2024-02-04T02:05:13;8.40;99.90
13174;DHT22;6652;48.802;9.190;2024-02-04T02:07:40;8.50;99.90
13174;DHT22;6652;48.802;9.190;2024-02-04T02:10:10;8.80;99.90
13174;DHT22;6652;48.802;9.190;2024-02-04T02:12:40;8.50;99.90
13174;DHT22;6652;48.802;9.190;2024-02-04T02:15:15;8.40;99.90
13174;DHT22;6652;48.802;9.190;2024-02-04T02:17:48;8.50;99.90
13174;DHT22;6652;48.802;9.190;2024-02-04T02:20:25;8.50;99.90
13174;DHT22;6652;48.802;9.190;2024-02-04T02:23:01;8.50;99.90
13174;DHT22;6652;48.802;9.190;2024-02-04T02:25:33;9.50;99.90
13174;DHT22;6652;48.802;9.190;2024-02-04T02:28:03;8.40;99.90
13174;DHT22;6652;48.802;9.190;2024-02-04T02:30:30;8.50;99.90
13174;DHT22;6652;48.802;9.190;2024-02-04T02:32:58;8.50;99.90
13174;DHT22;6652;48.802;9.190;2024-02-04T02:35:26;8.70;99.90
13174;DHT22;6652;48.802;9.190;2024-02-04T02:37:57;8.40;99.90
13174;DHT22;6652;48.802;9.190;2024-02-04T02:40:30;9.30;99.90
13174;DHT22;6652;48.802;9.190;2024-02-04T02:43:03;8.50;99.90
13174;DHT22;6652;48.802;9.190;2024-02-04T02:45:30;8.40;99.90
13174;DHT22;6652;48.802;9.190;2024-02-04T02:48:00;8.30;99.90
13174;DHT22;6652;48.802;9.190;2024-02-04T02:50:28;8.40;99.90
13174;DHT22;6652;48.802;9.190;2024-02-04T02:52:55;8.50;99.90
13174;DHT22;6652;48.802;9.190;2024-02-04T02:55:23;8.50;99.90
13174;DHT22;6652;48.802;9.190;2024-02-04T02:57:51;8.50;99.90
13174;DHT22;6652;48.802;9.190;2024-02-04T03:00:24;8.50;99.90
13174;DHT22;6652;48.802;9.190;2024-02-04T03:02:51;8.50;99.90
13174;DHT22;6652;48.802;9.190;2024-02-04T03:05:18;8.50;99.90
13174;DHT22;6652;48.802;9.190;2024-02-04T03:07:45;8.50;99.90
13174;DHT22;6652;48.802;9.190;2024-02-04T03:10:15;8.50;99.90
13174;DHT22;6652;48.802;9.190;2024-02-04T03:12:44;8.90;99.90
13174;DHT22;6652;48.802;9.190;2024-02-04T03:15:11;8.40;99.90
13174;DHT22;6652;48.802;9.190;2024-02-04T03:17:40;8.60;99.90
13174;DHT22;6652;48.802;9.190;2024-02-04T03:20:07;8.40;99.90
13174;DHT22;6652;48.802;9.190;2024-02-04T03:22:34;8.50;99.90
13174;DHT22;6652;48.802;9.190;2024-02-04T03:25:01;8.50;99.90
13174;DHT22;6652;48.802;9.190;2024-02-04T03:27:28;8.50;99.90
13174;DHT22;6652;48.802;9.190;2024-02-04T03:29:55;8.40;99.90
13174;DHT22;6652;48.802;9.190;2024-02-04T03:32:22;8.50;99.90
13174;DHT22;6652;48.802;9.190;2024-02-04T03:34:50;8.50;99.90
13174;DHT22;6652;48.802;9.190;2024-02-04T03:37:18;8.50;99.90
13174;DHT22;6652;48.802;9.190;2024-02-04T03:39:47;8.50;99.90
13174;DHT22;6652;48.802;9.190;2024-02-04T03:42:14;8.70;99.90
13174;DHT22;6652;48.802;9.190;2024-02-04T03:44:44;8.40;99.90
13174;DHT22;6652;48.802;9.190;2024-02-04T03:47:13;8.40;99.90
13174;DHT22;6652;48.802;9.190;2024-02-04T03:49:42;8.40;99.90
13174;DHT22;6652;48.802;9.190;2024-02-04T03:52:11;8.50;99.90
13174;DHT22;6652;48.802;9.190;2024-02-04T03:54:38;8.40;99.90
13174;DHT22;6652;48.802;9.190;2024-02-04T03:57:05;8.50;99.90
13174;DHT22;6652;48.802;9.190;2024-02-04T03:59:31;8.50;99.90
13174;DHT22;6652;48.802;9.190;2024-02-04T04:02:00;9.80;99.90
13174;DHT22;6652;48.802;9.190;2024-02-04T04:04:27;8.40;99.90
13174;DHT22;6652;48.802;9.190;2024-02-04T04:06:54;8.60;99.90
13174;DHT22;6652;48.802;9.190;2024-02-04T04:09:23;8.40;99.90
13174;DHT22;6652;48.802;9.190;2024-02-04T04:11:50;8.40;99.90
13174;DHT22;6652;48.802;9.190;2024-02-04T04:14:17;8.50;99.90
13174;DHT22;6652;48.802;9.190;2024-02-04T04:16:44;8.40;99.90
13174;DHT22;6652;48.802;9.190;2024-02-04T04:19:11;8.40;99.90
13174;DHT22;6652;48.802;9.190;2024-02-04T04:21:38;8.40;99.90
13174;DHT22;6652;48.802;9.190;2024-02-04T04:24:06;8.50;99.90
13174;DHT22;6652;48.802;9.190;2024-02-04T04:26:35;8.50;99.90
13174;DHT22;6652;48.802;9.190;2024-02-04T04:29:02;8.50;99.90
13174;DHT22;6652;48.802;9.190;2024-02-04T04:31:29;8.60;99.90
13174;DHT22;6652;48.802;9.190;2024-02-04T04:33:56;8.50;99.90
13174;DHT22;6652;48.802;9.190;2024-02-04T04:36:23;8.50;99.90
13174;DHT22;6652;48.802;9.190;2024-02-04T04:38:50;8.50;99.90
13174;DHT22;6652;48.802;9.190;2024-02-04T04:41:17;8.50;99.90
13174;DHT22;6652;48.802;9.190;2024-02-04T04:43:46;8.80;99.90
13174;DHT22;6652;48.802;9.190;2024-02-04T04:46:12;8.50;99.90
13174;DHT22;6652;48.802;9.190;2024-02-04T04:48:40;8.50;99.90
13174;DHT22;6652;48.802;9.190;2024-02-04T04:51:10;8.50;99.90
13174;DHT22;6652;48.802;9.190;2024-02-04T04:53:38;8.60;99.90
13174;DHT22;6652;48.802;9.190;2024-02-04T04:56:10;8.60;99.90
13174;DHT22;6652;48.802;9.190;2024-02-04T04:58:37;8.20;99.90
13174;DHT22;6652;48.802;9.190;2024-02-04T05:01:06;8.50;99.90
13174;DHT22;6652;48.802;9.190;2024-02-04T05:03:34;8.60;99.90
13174;DHT22;6652;48.802;9.190;2024-02-04T05:06:02;8.60;99.90
13174;DHT22;6652;48.802;9.190;2024-02-04T05:08:30;8.60;99.90
13174;DHT22;6652;48.802;9.190;2024-02-04T05:10:57;8.60;99.90
13174;DHT22;6652;48.802;9.190;2024-02-04T05:13:24;8.60;99.90
13174;DHT22;6652;48.802;9.190;2024-02-04T05:15:51;8.60;99.90
13174;DHT22;6652;48.802;9.190;2024-02-04T05:18:22;8.70;99.90
13174;DHT22;6652;48.802;9.190;2024-02-04T05:20:52;8.60;99.90
13174;DHT22;6652;48.802;9.190;2024-02-04T05:23:19;8.60;99.90
13174;DHT22;6652;48.802;9.190;2024-02-04T05:25:47;8.60;99.90
13174;DHT22;6652;48.802;9.190;2024-02-04T05:28:14;8.60;99.90
13174;DHT22;6652;48.802;9.190;2024-02-04T05:30:41;8.60;99.90
13174;DHT22;6652;48.802;9.190;2024-02-04T05:33:07;8.60;99.90
13174;DHT22;6652;48.802;9.190;2024-02-04T05:35:35;8.60;99.90
13174;DHT22;6652;48.802;9.190;2024-02-04T05:38:04;8.70;99.90
13174;DHT22;6652;48.802;9.190;2024-02-04T05:40:32;8.60;99.90
13174;DHT22;6652;48.802;9.190;2024-02-04T05:43:00;8.50;99.90
13174;DHT22;6652;48.802;9.190;2024-02-04T05:45:32;8.50;99.90
13174;DHT22;6652;48.802;9.190;2024-02-04T05:48:00;8.50;99.90
13174;DHT22;6652;48.802;9.190;2024-02-04T05:50:27;8.50;99.90
13174;DHT22;6652;48.802;9.190;2024-02-04T05:52:58;8.60;99.90
13174;DHT22;6652;48.802;9.190;2024-02-04T05:55:25;8.50;99.90
13174;DHT22;6652;48.802;9.190;2024-02-04T05:57:52;8.50;99.90
13174;DHT22;6652;48.802;9.190;2024-02-04T06:00:23;8.50;99.90
13174;DHT22;6652;48.802;9.190;2024-02-04T06:02:52;8.50;99.90
13174;DHT22;6652;48.802;9.190;2024-02-04T06:05:19;8.50;99.90
13174;DHT22;6652;48.802;9.190;2024-02-04T06:07:46;8.60;99.90
13174;DHT22;6652;48.802;9.190;2024-02-04T06:10:14;8.50;99.90
13174;DHT22;6652;48.802;9.190;2024-02-04T06:12:44;8.50;99.90
13174;DHT22;6652;48.802;9.190;2024-02-04T06:15:14;8.40;99.90
13174;DHT22;6652;48.802;9.190;2024-02-04T06:17:46;8.40;99.90
13174;DHT22;6652;48.802;9.190;2024-02-04T06:20:13;8.40;99.90
13174;DHT22;6652;48.802;9.190;2024-02-04T06:22:40;8.40;99.90
13174;DHT22;6652;48.802;9.190;2024-02-04T06:25:08;8.50;99.90
13174;DHT22;6652;48.802;9.190;2024-02-04T06:27:40;8.50;99.90
13174;DHT22;6652;48.802;9.190;2024-02-04T06:30:07;8.50;99.90
13174;DHT22;6652;48.802;9.190;2024-02-04T06:32:34;8.50;99.90
13174;DHT22;6652;48.802;9.190;2024-02-04T06:35:02;8.50;99.90
13174;DHT22;6652;48.802;9.190;2024-02-04T06:37:29;8.40;99.90
13174;DHT22;6652;48.802;9.190;2024-02-04T06:39:56;8.50;99.90
13174;DHT22;6652;48.802;9.190;2024-02-04T06:42:23;8.50;99.90
13174;DHT22;6652;48.802;9.190;2024-02-04T06:44:55;8.50;99.90
13174;DHT22;6652;48.802;9.190;2024-02-04T06:47:22;8.50;99.90
13174;DHT22;6652;48.802;9.190;2024-02-04T06:49:51;8.50;99.90
13174;DHT22;6652;48.802;9.190;2024-02-04T06:52:18;8.40;99.90
13174;DHT22;6652;48.802;9.190;2024-02-04T06:54:46;8.40;99.90
13174;DHT22;6652;48.802;9.190;2024-02-04T06:57:13;8.40;99.90
13174;DHT22;6652;48.802;9.190;2024-02-04T06:59:41;8.40;99.90
13174;DHT22;6652;48.802;9.190;2024-02-04T07:02:11;9.30;99.90
13174;DHT22;6652;48.802;9.190;2024-02-04T07:04:43;8.30;99.90
13174;DHT22;6652;48.802;9.190;2024-02-04T07:07:10;8.30;99.90
13174;DHT22;6652;48.802;9.190;2024-02-04T07:09:44;8.80;99.90
13174;DHT22;6652;48.802;9.190;2024-02-04T07:12:14;8.50;99.90
13174;DHT22;6652;48.802;9.190;2024-02-04T07:14:42;8.30;99.90
13174;DHT22;6652;48.802;9.190;2024-02-04T07:17:13;8.20;99.90
13174;DHT22;6652;48.802;9.190;2024-02-04T07:19:42;8.30;99.90
13174;DHT22;6652;48.802;9.190;2024-02-04T07:22:09;8.20;99.90
13174;DHT22;6652;48.802;9.190;2024-02-04T07:24:41;9.20;99.90
13174;DHT22;6652;48.802;9.190;2024-02-04T07:27:09;8.30;99.90
13174;DHT22;6652;48.802;9.190;2024-02-04T07:29:38;8.40;99.90
13174;DHT22;6652;48.802;9.190;2024-02-04T07:32:07;8.30;99.90
13174;DHT22;6652;48.802;9.190;2024-02-04T07:34:36;8.40;99.90
13174;DHT22;6652;48.802;9.190;2024-02-04T07:37:07;8.40;99.90
13174;DHT22;6652;48.802;9.190;2024-02-04T07:39:36;8.50;99.90
13174;DHT22;6652;48.802;9.190;2024-02-04T07:42:06;8.60;99.90
13174;DHT22;6652;48.802;9.190;2024-02-04T07:44:35;8.80;99.90
13174;DHT22;6652;48.802;9.190;2024-02-04T07:47:03;10.00;99.90
13174;DHT22;6652;48.802;9.190;2024-02-04T07:49:34;9.10;99.90
13174;DHT22;6652;48.802;9.190;2024-02-04T07:52:04;10.00;99.90
13174;DHT22;6652;48.802;9.190;2024-02-04T07:54:33;9.50;99.90
13174;DHT22;6652;48.802;9.190;2024-02-04T07:57:02;9.60;99.90
13174;DHT22;6652;48.802;9.190;2024-02-04T07:59:29;9.80;99.90
13174;DHT22;6652;48.802;9.190;2024-02-04T08:01:56;10.10;99.90
13174;DHT22;6652;48.802;9.190;2024-02-04T08:04:23;10.90;99.90
13174;DHT22;6652;48.802;9.190;2024-02-04T08:06:50;11.50;99.90
13174;DHT22;6652;48.802;9.190;2024-02-04T08:09:19;11.90;99.90
13174;DHT22;6652;48.802;9.190;2024-02-04T08:11:48;12.20;99.90
13174;DHT22;6652;48.802;9.190;2024-02-04T08:14:15;11.90;99.90
13174;DHT22;6652;48.802;9.190;2024-02-04T08:16:42;11.50;99.90
13174;DHT22;6652;48.802;9.190;2024-02-04T08:19:11;11.20;99.90
13174;DHT22;6652;48.802;9.190;2024-02-04T08:21:39;10.90;99.90
13174;DHT22;6652;48.802;9.190;2024-02-04T08:24:07;11.00;99.90
13174;DHT22;6652;48.802;9.190;2024-02-04T08:26:36;11.30;99.90
13174;DHT22;6652;48.802;9.190;2024-02-04T08:29:03;11.50;99.90
13174;DHT22;6652;48.802;9.190;2024-02-04T08:31:32;11.70;99.90
13174;DHT22;6652;48.802;9.190;2024-02-04T08:33:59;11.80;99.90
13174;DHT22;6652;48.802;9.190;2024-02-04T08:36:27;11.80;99.90
13174;DHT22;6652;48.802;9.190;2024-02-04T08:38:54;11.40;99.90
13174;DHT22;6652;48.802;9.190;2024-02-04T08:41:24;11.30;99.90
13174;DHT22;6652;48.802;9.190;2024-02-04T08:43:53;10.80;99.90
13174;DHT22;6652;48.802;9.190;2024-02-04T08:46:20;10.70;99.90
13174;DHT22;6652;48.802;9.190;2024-02-04T08:48:47;10.50;99.90
13174;DHT22;6652;48.802;9.190;2024-02-04T08:51:15;10.50;99.90
13174;DHT22;6652;48.802;9.190;2024-02-04T08:53:45;10.20;99.90
13174;DHT22;6652;48.802;9.190;2024-02-04T08:56:15;10.30;99.90
13174;DHT22;6652;48.802;9.190;2024-02-04T08:58:43;10.10;99.90
13174;DHT22;6652;48.802;9.190;2024-02-04T09:01:12;10.00;99.90
13174;DHT22;6652;48.802;9.190;2024-02-04T09:03:41;10.00;99.90
13174;DHT22;6652;48.802;9.190;2024-02-04T09:06:09;10.00;99.90
13174;DHT22;6652;48.802;9.190;2024-02-04T09:08:42;10.00;99.90
13174;DHT22;6652;48.802;9.190;2024-02-04T09:11:22;10.10;99.90
13174;DHT22;6652;48.802;9.190;2024-02-04T09:13:50;10.30;99.90
13174;DHT22;6652;48.802;9.190;2024-02-04T09:16:22;10.30;99.90
13174;DHT22;6652;48.802;9.190;2024-02-04T09:18:51;11.00;99.90
13174;DHT22;6652;48.802;9.190;2024-02-04T09:21:17;10.40;99.90
13174;DHT22;6652;48.802;9.190;2024-02-04T09:23:47;10.50;99.90
13174;DHT22;6652;48.802;9.190;2024-02-04T09:26:16;10.60;99.90
13174;DHT22;6652;48.802;9.190;2024-02-04T09:28:52;10.50;99.90
13174;DHT22;6652;48.802;9.190;2024-02-04T09:34:48;10.70;99.90
13174;DHT22;6652;48.802;9.190;2024-02-04T09:37:20;10.70;99.90
13174;DHT22;6652;48.802;9.190;2024-02-04T09:43:14;11.10;99.90
13174;DHT22;6652;48.802;9.190;2024-02-04T09:45:44;11.30;99.90
13174;DHT22;6652;48.802;9.190;2024-02-04T09:48:12;11.50;99.90
13174;DHT22;6652;48.802;9.190;2024-02-04T09:50:45;11.50;99.90
13174;DHT22;6652;48.802;9.190;2024-02-04T09:53:27;11.50;99.90
13174;DHT22;6652;48.802;9.190;2024-02-04T09:56:12;11.60;99.90
13174;DHT22;6652;48.802;9.190;2024-02-04T09:58:57;11.70;99.90
13174;DHT22;6652;48.802;9.190;2024-02-04T10:01:50;11.90;99.90
13174;DHT22;6652;48.802;9.190;2024-02-04T10:04:52;12.00;99.90
13174;DHT22;6652;48.802;9.190;2024-02-04T10:14:06;12.30;99.90
13174;DHT22;6652;48.802;9.190;2024-02-04T10:16:36;12.90;99.90
13174;DHT22;6652;48.802;9.190;2024-02-04T10:19:10;12.90;99.90
13174;DHT22;6652;48.802;9.190;2024-02-04T10:21:40;12.90;99.90
13174;DHT22;6652;48.802;9.190;2024-02-04T10:24:07;13.00;99.90
13174;DHT22;6652;48.802;9.190;2024-02-04T10:26:39;13.30;99.90
13174;DHT22;6652;48.802;9.190;2024-02-04T10:29:20;13.30;99.90
13174;DHT22;6652;48.802;9.190;2024-02-04T10:31:48;13.20;99.90
13174;DHT22;6652;48.802;9.190;2024-02-04T10:34:17;13.40;99.90
13174;DHT22;6652;48.802;9.190;2024-02-04T10:36:58;14.10;99.90
13174;DHT22;6652;48.802;9.190;2024-02-04T10:39:27;14.60;99.90
13174;DHT22;6652;48.802;9.190;2024-02-04T10:41:56;14.30;99.90
13174;DHT22;6652;48.802;9.190;2024-02-04T10:44:45;14.00;99.90
13174;DHT22;6652;48.802;9.190;2024-02-04T10:47:22;13.90;99.90
13174;DHT22;6652;48.802;9.190;2024-02-04T10:49:51;13.90;99.90
13174;DHT22;6652;48.802;9.190;2024-02-04T10:52:41;14.10;99.90
13174;DHT22;6652;48.802;9.190;2024-02-04T10:55:29;14.00;99.90
13174;DHT22;6652;48.802;9.190;2024-02-04T10:58:15;14.10;99.90
13174;DHT22;6652;48.802;9.190;2024-02-04T11:01:00;13.80;99.90
13174;DHT22;6652;48.802;9.190;2024-02-04T11:03:48;13.40;99.90
13174;DHT22;6652;48.802;9.190;2024-02-04T11:06:18;13.10;99.90
13174;DHT22;6652;48.802;9.190;2024-02-04T11:08:50;13.00;99.90
13174;DHT22;6652;48.802;9.190;2024-02-04T11:11:19;12.90;99.90
13174;DHT22;6652;48.802;9.190;2024-02-04T11:13:48;12.90;99.90
13174;DHT22;6652;48.802;9.190;2024-02-04T11:16:26;13.20;99.90
13174;DHT22;6652;48.802;9.190;2024-02-04T11:19:19;13.40;99.90
13174;DHT22;6652;48.802;9.190;2024-02-04T11:24:58;14.50;99.90
13174;DHT22;6652;48.802;9.190;2024-02-04T11:27:26;15.20;99.90
13174;DHT22;6652;48.802;9.190;2024-02-04T11:29:54;15.50;99.90
13174;DHT22;6652;48.802;9.190;2024-02-04T11:32:24;15.50;99.90
13174;DHT22;6652;48.802;9.190;2024-02-04T11:34:51;15.30;99.90
13174;DHT22;6652;48.802;9.190;2024-02-04T11:37:20;15.20;99.90
13174;DHT22;6652;48.802;9.190;2024-02-04T11:39:50;15.00;99.90
13174;DHT22;6652;48.802;9.190;2024-02-04T11:42:18;14.70;99.90
13174;DHT22;6652;48.802;9.190;2024-02-04T11:44:46;14.50;99.90
13174;DHT22;6652;48.802;9.190;2024-02-04T11:47:24;14.20;99.90
13174;DHT22;6652;48.802;9.190;2024-02-04T11:49:55;14.50;99.90
13174;DHT22;6652;48.802;9.190;2024-02-04T11:52:22;14.40;99.90
13174;DHT22;6652;48.802;9.190;2024-02-04T11:54:50;14.60;99.90
13174;DHT22;6652;48.802;9.190;2024-02-04T11:57:17;14.80;99.90
13174;DHT22;6652;48.802;9.190;2024-02-04T11:59:44;14.90;99.90
13174;DHT22;6652;48.802;9.190;2024-02-04T12:02:12;14.70;99.90
13174;DHT22;6652;48.802;9.190;2024-02-04T12:04:41;14.60;99.90
13174;DHT22;6652;48.802;9.190;2024-02-04T12:07:09;14.40;99.90
13174;DHT22;6652;48.802;9.190;2024-02-04T12:09:36;14.20;99.90
13174;DHT22;6652;48.802;9.190;2024-02-04T12:12:05;14.00;99.90
13174;DHT22;6652;48.802;9.190;2024-02-04T12:14:35;13.80;99.90
13174;DHT22;6652;48.802;9.190;2024-02-04T12:17:07;13.70;99.90
13174;DHT22;6652;48.802;9.190;2024-02-04T12:26:37;13.40;99.90
13174;DHT22;6652;48.802;9.190;2024-02-04T12:29:13;13.40;99.90
13174;DHT22;6652;48.802;9.190;2024-02-04T12:32:03;13.20;99.90
13174;DHT22;6652;48.802;9.190;2024-02-04T12:34:41;13.20;99.90
13174;DHT22;6652;48.802;9.190;2024-02-04T12:37:14;13.10;99.90
13174;DHT22;6652;48.802;9.190;2024-02-04T13:15:39;14.40;99.90
13174;DHT22;6652;48.802;9.190;2024-02-04T13:18:15;14.40;99.90
13174;DHT22;6652;48.802;9.190;2024-02-04T13:20:45;14.30;99.90
13174;DHT22;6652;48.802;9.190;2024-02-04T13:23:20;14.10;99.90
13174;DHT22;6652;48.802;9.190;2024-02-04T13:26:01;13.90;99.90
13174;DHT22;6652;48.802;9.190;2024-02-04T13:28:42;13.80;99.90
13174;DHT22;6652;48.802;9.190;2024-02-04T13:31:15;13.60;99.90
13174;DHT22;6652;48.802;9.190;2024-02-04T13:33:52;13.40;99.90
13174;DHT22;6652;48.802;9.190;2024-02-04T13:36:33;13.30;99.90
13174;DHT22;6652;48.802;9.190;2024-02-04T13:39:03;13.30;99.90
13174;DHT22;6652;48.802;9.190;2024-02-04T13:41:34;13.30;99.90
13174;DHT22;6652;48.802;9.190;2024-02-04T13:44:15;13.40;99.90
13174;DHT22;6652;48.802;9.190;2024-02-04T13:46:48;13.50;99.90
13174;DHT22;6652;48.802;9.190;2024-02-04T13:49:19;13.50;99.90
13174;DHT22;6652;48.802;9.190;2024-02-04T13:52:00;13.50;99.90
13174;DHT22;6652;48.802;9.190;2024-02-04T13:54:29;13.60;99.90
13174;DHT22;6652;48.802;9.190;2024-02-04T13:57:00;13.70;99.90
13174;DHT22;6652;48.802;9.190;2024-02-04T13:59:41;13.70;99.90
13174;DHT22;6652;48.802;9.190;2024-02-04T15:25:16;12.20;99.90
13174;DHT22;6652;48.802;9.190;2024-02-04T15:30:15;12.10;99.90
13174;DHT22;6652;48.802;9.190;2024-02-04T15:32:47;12.00;99.90
13174;DHT22;6652;48.802;9.190;2024-02-04T15:35:21;11.90;99.90
13174;DHT22;6652;48.802;9.190;2024-02-04T15:37:48;11.90;99.90
13174;DHT22;6652;48.802;9.190;2024-02-04T15:40:20;11.80;99.90
13174;DHT22;6652;48.802;9.190;2024-02-04T15:42:53;11.80;99.90
13174;DHT22;6652;48.802;9.190;2024-02-04T15:45:20;11.90;99.90
13174;DHT22;6652;48.802;9.190;2024-02-04T15:47:49;11.70;99.90
13174;DHT22;6652;48.802;9.190;2024-02-04T15:50:18;11.70;99.90
13174;DHT22;6652;48.802;9.190;2024-02-04T15:52:47;11.60;99.90
13174;DHT22;6652;48.802;9.190;2024-02-04T15:55:17;11.60;99.90
13174;DHT22;6652;48.802;9.190;2024-02-04T15:57:48;11.50;99.90
13174;DHT22;6652;48.802;9.190;2024-02-04T16:00:20;11.50;99.90
13174;DHT22;6652;48.802;9.190;2024-02-04T16:03:09;11.50;99.90
13174;DHT22;6652;48.802;9.190;2024-02-04T16:05:51;11.30;99.90
13174;DHT22;6652;48.802;9.190;2024-02-04T16:08:19;11.30;99.90
13174;DHT22;6652;48.802;9.190;2024-02-04T16:10:48;11.30;99.90
13174;DHT22;6652;48.802;9.190;2024-02-04T16:13:18;11.20;99.90
13174;DHT22;6652;48.802;9.190;2024-02-04T16:15:47;11.20;99.90
13174;DHT22;6652;48.802;9.190;2024-02-04T16:18:17;11.10;99.90
13174;DHT22;6652;48.802;9.190;2024-02-04T16:20:49;11.00;99.90
13174;DHT22;6652;48.802;9.190;2024-02-04T16:23:15;10.90;99.90
13174;DHT22;6652;48.802;9.190;2024-02-04T16:25:45;10.80;99.90
13174;DHT22;6652;48.802;9.190;2024-02-04T16:28:15;10.80;99.90
13174;DHT22;6652;48.802;9.190;2024-02-04T16:30:56;10.90;99.90
13174;DHT22;6652;48.802;9.190;2024-02-04T16:33:28;10.80;99.90
13174;DHT22;6652;48.802;9.190;2024-02-04T16:35:59;10.80;99.90
13174;DHT22;6652;48.802;9.190;2024-02-04T16:38:39;10.80;99.90
13174;DHT22;6652;48.802;9.190;2024-02-04T16:41:21;10.80;99.90
13174;DHT22;6652;48.802;9.190;2024-02-04T16:44:06;10.80;99.90
13174;DHT22;6652;48.802;9.190;2024-02-04T16:46:41;10.90;99.90
13174;DHT22;6652;48.802;9.190;2024-02-04T16:49:22;10.80;99.90
13174;DHT22;6652;48.802;9.190;2024-02-04T16:51:51;10.70;99.90
13174;DHT22;6652;48.802;9.190;2024-02-04T16:54:38;10.70;99.90
13174;DHT22;6652;48.802;9.190;2024-02-04T16:57:19;10.60;99.90
13174;DHT22;6652;48.802;9.190;2024-02-04T17:00:19;11.00;99.90
13174;DHT22;6652;48.802;9.190;2024-02-04T17:02:56;10.60;99.90
13174;DHT22;6652;48.802;9.190;2024-02-04T17:05:41;10.50;99.90
13174;DHT22;6652;48.802;9.190;2024-02-04T17:08:23;10.50;99.90
13174;DHT22;6652;48.802;9.190;2024-02-04T17:11:05;10.50;99.90
13174;DHT22;6652;48.802;9.190;2024-02-04T17:13:39;10.40;99.90
13174;DHT22;6652;48.802;9.190;2024-02-04T17:16:44;10.50;99.90
13174;DHT22;6652;48.802;9.190;2024-02-04T17:19:38;10.40;99.90
13174;DHT22;6652;48.802;9.190;2024-02-04T17:22:19;10.70;99.90
13174;DHT22;6652;48.802;9.190;2024-02-04T17:25:16;10.30;99.90
13174;DHT22;6652;48.802;9.190;2024-02-04T17:28:08;10.30;99.90
13174;DHT22;6652;48.802;9.190;2024-02-04T17:31:06;10.30;99.90
13174;DHT22;6652;48.802;9.190;2024-02-04T17:34:14;9.80;99.90
13174;DHT22;6652;48.802;9.190;2024-02-04T17:39:21;10.20;99.90
13174;DHT22;6652;48.802;9.190;2024-02-04T18:15:17;9.50;99.90
13174;DHT22;6652;48.802;9.190;2024-02-04T18:23:33;9.40;99.90
13174;DHT22;6652;48.802;9.190;2024-02-04T18:26:18;9.30;99.90
13174;DHT22;6652;48.802;9.190;2024-02-04T18:29:09;9.30;99.90
13174;DHT22;6652;48.802;9.190;2024-02-04T20:51:47;8.20;99.90
13174;DHT22;6652;48.802;9.190;2024-02-04T20:54:45;8.20;99.90
13174;DHT22;6652;48.802;9.190;2024-02-04T20:57:52;8.70;99.90
13174;DHT22;6652;48.802;9.190;2024-02-04T21:03:28;8.30;99.90
13174;DHT22;6652;48.802;9.190;2024-02-04T21:06:32;8.10;99.90
13174;DHT22;6652;48.802;9.190;2024-02-04T22:02:04;7.90;99.90
13174;DHT22;6652;48.802;9.190;2024-02-04T22:58:19;7.60;99.90
13174;DHT22;6652;48.802;9.190;2024-02-04T23:01:08;7.90;99.90
13174;DHT22;6652;48.802;9.190;2024-02-04T23:09:18;7.80;99.90
13174;DHT22;6652;48.802;9.190;2024-02-04T23:11:52;7.80;99.90
13174;DHT22;6652;48.802;9.190;2024-02-04T23:14:49;7.80;99.90
13174;DHT22;6652;48.802;9.190;2024-02-04T23:17:50;8.20;99.90
13174;DHT22;6652;48.802;9.190;2024-02-04T23:20:29;7.90;99.90
13174;DHT22;6652;48.802;9.190;2024-02-04T23:22:58;7.90;99.90
13174;DHT22;6652;48.802;9.190;2024-02-04T23:25:43;7.90;99.90
13174;DHT22;6652;48.802;9.190;2024-02-04T23:28:16;7.90;99.90
13174;DHT22;6652;48.802;9.190;2024-02-04T23:34:34;8.10;99.90
13174;DHT22;6652;48.802;9.190;2024-02-04T23:42:33;8.10;99.90
